Time;durP1;ratioP1;P1;durP2;ratioP2;P2;SDS_P1;SDS_P2;PMS_P1;PMS_P2;Temp;Humidity;BMP_temperature;BMP_pressure;BME280_temperature;BME280_humidity;BME280_pressure;Samples;Min_cycle;Max_cycle;Signal;HPM_P1;HPM_P2
2022/10/10 00:01:55;;;;;;;35.10;19.47;;;6.30;99.90;;;;;;10393889;28;20164;-78
2022/10/10 00:06:56;;;;;;;37.33;19.30;;;6.40;99.90;;;;;;10401852;28;20044;-78
2022/10/10 00:11:56;;;;;;;41.20;19.23;;;6.40;99.90;;;;;;10407384;28;20060;-79
2022/10/10 00:16:57;;;;;;;33.27;17.63;;;6.40;99.90;;;;;;10404151;28;20044;-78
2022/10/10 00:21:57;;;;;;;37.27;17.70;;;6.50;99.90;;;;;;10408041;28;20040;-78
2022/10/10 00:26:58;;;;;;;32.67;16.27;;;6.40;99.90;;;;;;10398022;28;20540;-78
2022/10/10 00:31:59;;;;;;;29.47;15.60;;;6.50;99.90;;;;;;10405842;28;20112;-78
2022/10/10 00:36:59;;;;;;;36.40;17.27;;;6.50;99.90;;;;;;10402530;28;20061;-78
2022/10/10 00:42:00;;;;;;;33.10;15.90;;;6.50;99.90;;;;;;10405299;28;20029;-78
2022/10/10 00:47:00;;;;;;;36.57;19.23;;;6.50;99.90;;;;;;10405575;28;20199;-78
2022/10/10 00:52:01;;;;;;;39.40;17.60;;;6.60;99.90;;;;;;10405590;28;20550;-78
2022/10/10 00:57:10;;;;;;;32.60;17.77;;;6.60;99.90;;;;;;10403028;28;20499;-79
2022/10/10 01:02:10;;;;;;;40.60;18.07;;;6.70;99.90;;;;;;10405163;28;20224;-77
2022/10/10 01:07:27;;;;;;;36.53;18.10;;;6.60;99.90;;;;;;10405335;28;20700;-80
2022/10/10 01:12:46;;;;;;;30.08;17.30;;;6.60;99.90;;;;;;10398611;28;20029;-78
2022/10/10 01:17:55;;;;;;;30.47;16.40;;;6.60;99.90;;;;;;10405282;28;20064;-78
2022/10/10 01:23:35;;;;;;;31.47;16.13;;;6.60;99.90;;;;;;10399651;28;20029;-77
2022/10/10 01:28:47;;;;;;;34.80;17.40;;;6.50;99.90;;;;;;10377760;28;20060;-78
2022/10/10 01:33:56;;;;;;;29.33;15.87;;;6.40;99.90;;;;;;10402627;28;20061;-79
2022/10/10 01:39:07;;;;;;;31.53;16.10;;;6.40;99.90;;;;;;10405302;28;20052;-78
2022/10/10 01:44:08;;;;;;;30.77;15.13;;;6.30;99.90;;;;;;10386966;28;20038;-79
2022/10/10 01:49:08;;;;;;;29.60;16.70;;;6.20;99.90;;;;;;10398438;28;20381;-78
2022/10/10 01:54:28;;;;;;;30.70;15.87;;;6.10;99.90;;;;;;10411031;28;20032;-78
2022/10/10 02:00:08;;;;;;;30.67;16.67;;;6.00;99.90;;;;;;10400754;28;20370;-77
2022/10/10 02:05:47;;;;;;;31.67;16.97;;;5.90;99.90;;;;;;10393501;28;20042;-80
2022/10/10 02:10:53;;;;;;;33.07;15.60;;;5.90;99.90;;;;;;10410218;28;20120;-77
2022/10/10 02:15:56;;;;;;;;;;;5.80;99.90;;;;;;10394942;28;20065;-78
2022/10/10 02:20:58;;;;;;;31.17;15.90;;;5.70;99.90;;;;;;10385680;28;19913;-78
2022/10/10 02:25:59;;;;;;;34.40;15.73;;;5.70;99.90;;;;;;10398903;28;20041;-78
2022/10/10 02:31:04;;;;;;;35.77;16.70;;;5.70;99.90;;;;;;10402728;28;20656;-80
2022/10/10 02:36:05;;;;;;;34.97;18.10;;;5.70;99.90;;;;;;10403319;28;20128;-78
2022/10/10 02:41:10;;;;;;;32.57;15.37;;;5.70;99.90;;;;;;10409619;28;20760;-78
2022/10/10 02:46:12;;;;;;;28.83;15.17;;;5.80;99.90;;;;;;10409321;28;20033;-78
2022/10/10 02:51:15;;;;;;;33.03;16.80;;;5.70;99.90;;;;;;10410360;28;20027;-78
2022/10/10 02:56:15;;;;;;;34.37;16.40;;;5.50;99.90;;;;;;10398983;28;20032;-77
2022/10/10 03:01:16;;;;;;;31.00;14.50;;;5.50;99.90;;;;;;10399436;28;20382;-80
2022/10/10 03:06:16;;;;;;;29.77;14.83;;;5.50;99.90;;;;;;10401466;28;20045;-78
2022/10/10 03:11:18;;;;;;;30.77;14.67;;;5.50;99.90;;;;;;10405215;28;20044;-78
2022/10/10 03:16:19;;;;;;;34.97;15.47;;;5.40;99.90;;;;;;10403342;28;20116;-78
2022/10/10 03:21:19;;;;;;;31.73;14.00;;;5.30;99.90;;;;;;10396705;28;20034;-80
2022/10/10 03:26:20;;;;;;;27.97;12.73;;;5.30;99.90;;;;;;10405395;28;20133;-78
2022/10/10 03:31:21;;;;;;;24.93;13.37;;;5.40;99.90;;;;;;10406448;28;20529;-78
2022/10/10 03:36:22;;;;;;;27.37;13.30;;;5.40;99.90;;;;;;10406705;28;20053;-78
2022/10/10 03:41:22;;;;;;;24.30;11.43;;;5.30;99.90;;;;;;10396070;28;20112;-80
2022/10/10 03:46:23;;;;;;;25.20;12.57;;;5.30;99.90;;;;;;10384501;28;20038;-80
2022/10/10 03:51:23;;;;;;;30.83;12.87;;;5.20;99.90;;;;;;10398393;28;20037;-78
2022/10/10 03:56:24;;;;;;;23.83;11.47;;;5.20;99.90;;;;;;10401351;28;20030;-79
2022/10/10 04:01:24;;;;;;;23.67;11.07;;;5.20;99.90;;;;;;10404213;28;20100;-79
2022/10/10 04:06:26;;;;;;;22.47;10.50;;;5.10;99.90;;;;;;10407422;28;20037;-78
2022/10/10 04:11:27;;;;;;;21.60;10.23;;;5.10;99.90;;;;;;10395652;28;20412;-78
2022/10/10 04:16:27;;;;;;;19.30;8.97;;;5.00;99.90;;;;;;10400539;28;20037;-80
2022/10/10 04:21:28;;;;;;;19.77;10.07;;;5.10;99.90;;;;;;10387164;28;20060;-78
2022/10/10 04:26:28;;;;;;;18.03;9.60;;;5.00;99.90;;;;;;10405995;28;20683;-81
2022/10/10 04:31:29;;;;;;;23.23;10.60;;;5.00;99.90;;;;;;10406618;28;20432;-78
2022/10/10 04:36:29;;;;;;;23.07;9.53;;;4.90;99.90;;;;;;10393595;28;20060;-80
2022/10/10 04:41:30;;;;;;;17.53;8.40;;;4.90;99.90;;;;;;10406048;28;20025;-78
2022/10/10 04:46:30;;;;;;;18.30;8.57;;;4.90;99.90;;;;;;10406483;28;20038;-78
2022/10/10 04:51:31;;;;;;;23.17;9.47;;;4.90;99.90;;;;;;10405718;28;20033;-78
2022/10/10 04:56:32;;;;;;;17.87;9.47;;;4.90;99.90;;;;;;10405638;28;20551;-78
2022/10/10 05:01:32;;;;;;;22.57;10.53;;;4.90;99.90;;;;;;10405646;28;20580;-78
2022/10/10 05:06:33;;;;;;;21.93;10.20;;;4.90;99.90;;;;;;10405469;28;20129;-78
2022/10/10 05:11:34;;;;;;;21.50;10.20;;;4.90;99.90;;;;;;10405810;28;20071;-78
2022/10/10 05:16:34;;;;;;;20.47;9.37;;;4.90;99.90;;;;;;10405514;28;20124;-79
2022/10/10 05:21:35;;;;;;;21.97;10.17;;;4.90;99.90;;;;;;10405244;28;20044;-78
2022/10/10 05:26:35;;;;;;;20.43;9.63;;;4.90;99.90;;;;;;10405070;28;20468;-78
2022/10/10 05:31:36;;;;;;;23.70;10.60;;;4.90;99.90;;;;;;10404668;28;20033;-78
2022/10/10 05:36:36;;;;;;;23.73;9.70;;;4.90;99.90;;;;;;10404872;28;20136;-80
2022/10/10 05:41:37;;;;;;;22.17;10.43;;;4.90;99.90;;;;;;10391031;28;20029;-80
2022/10/10 05:46:37;;;;;;;22.20;11.03;;;5.00;99.90;;;;;;10404596;28;20037;-79
2022/10/10 05:51:38;;;;;;;22.90;11.63;;;5.00;99.90;;;;;;10390776;28;20029;-80
2022/10/10 05:56:38;;;;;;;20.63;10.43;;;5.10;99.90;;;;;;10404483;28;20033;-77
2022/10/10 06:01:39;;;;;;;25.63;12.93;;;5.20;99.90;;;;;;10404506;28;20030;-78
2022/10/10 06:06:40;;;;;;;21.83;11.63;;;5.40;99.90;;;;;;10404606;28;20061;-78
2022/10/10 06:11:40;;;;;;;29.20;13.13;;;5.50;99.90;;;;;;10404337;28;20044;-79
2022/10/10 06:16:44;;;;;;;32.13;15.50;;;5.60;99.90;;;;;;10404832;28;20064;-79
2022/10/10 06:21:44;;;;;;;39.40;14.67;;;5.70;99.90;;;;;;10404247;28;20029;-78
2022/10/10 06:26:45;;;;;;;27.07;14.03;;;5.90;99.90;;;;;;10403931;28;20401;-77
2022/10/10 06:31:45;;;;;;;25.47;11.90;;;6.10;99.90;;;;;;10406991;28;20041;-78
2022/10/10 06:36:49;;;;;;;21.07;10.13;;;6.30;99.90;;;;;;10411077;28;20107;-78
2022/10/10 06:41:49;;;;;;;16.00;9.10;;;6.60;99.90;;;;;;10411128;28;20036;-78
2022/10/10 06:46:50;;;;;;;20.87;10.10;;;6.80;99.90;;;;;;10410826;28;20048;-77
2022/10/10 06:51:50;;;;;;;18.47;8.43;;;7.10;99.90;;;;;;10410824;28;20469;-78
2022/10/10 06:56:51;;;;;;;13.77;8.07;;;7.40;99.90;;;;;;10410577;28;20052;-79
2022/10/10 07:01:51;;;;;;;14.30;7.63;;;7.70;99.90;;;;;;10409990;28;20120;-76
2022/10/10 07:06:52;;;;;;;16.33;7.27;;;8.10;99.90;;;;;;10410018;28;20099;-79
2022/10/10 07:11:52;;;;;;;17.20;7.67;;;8.40;99.90;;;;;;10408509;28;20083;-80
2022/10/10 07:16:53;;;;;;;13.93;6.40;;;8.70;99.90;;;;;;10409991;28;20025;-78
2022/10/10 07:21:53;;;;;;;10.53;5.50;;;9.00;99.90;;;;;;10409526;28;20059;-78
2022/10/10 07:26:55;;;;;;;11.93;5.90;;;9.30;99.90;;;;;;10407862;28;20366;-78
2022/10/10 07:31:56;;;;;;;8.07;4.43;;;9.70;99.90;;;;;;10409083;28;20036;-77
2022/10/10 07:36:56;;;;;;;8.27;4.78;;;10.00;99.90;;;;;;10409247;28;20064;-77
2022/10/10 07:41:57;;;;;;;7.47;4.63;;;10.30;99.90;;;;;;10408191;28;20026;-78
2022/10/10 07:46:57;;;;;;;9.13;4.60;;;10.70;99.90;;;;;;10408160;28;20046;-77
2022/10/10 07:51:58;;;;;;;9.38;4.97;;;10.90;99.90;;;;;;10408530;28;20054;-77
2022/10/10 07:56:58;;;;;;;6.95;4.10;;;11.20;99.90;;;;;;10408144;28;20685;-79
2022/10/10 08:01:59;;;;;;;8.30;4.88;;;11.40;99.90;;;;;;10407559;28;20068;-76
2022/10/10 08:06:59;;;;;;;8.05;4.55;;;11.70;99.90;;;;;;10395341;28;20116;-79
2022/10/10 08:12:00;;;;;;;7.05;4.28;;;11.90;99.90;;;;;;10407369;28;20116;-77
2022/10/10 08:17:00;;;;;;;8.95;4.40;;;12.20;99.90;;;;;;10407274;28;20117;-78
2022/10/10 08:22:01;;;;;;;7.68;4.35;;;12.40;99.90;;;;;;10407161;28;20042;-78
2022/10/10 08:27:02;;;;;;;10.10;4.07;;;12.70;99.90;;;;;;10406770;28;20037;-78
2022/10/10 08:32:02;;;;;;;8.45;4.55;;;13.00;99.90;;;;;;10406775;28;20556;-79
2022/10/10 08:37:03;;;;;;;9.40;4.72;;;13.30;99.90;;;;;;10406754;28;20057;-78
2022/10/10 08:42:04;;;;;;;8.63;4.07;;;13.50;99.90;;;;;;10406572;28;20029;-78
2022/10/10 08:47:09;;;;;;;13.07;5.65;;;13.70;99.80;;;;;;10406133;28;20060;-78
2022/10/10 08:52:12;;;;;;;12.27;5.63;;;14.00;99.90;;;;;;10405902;28;20041;-79
2022/10/10 08:57:26;;;;;;;7.38;4.22;;;14.30;99.90;;;;;;10405627;28;20036;-78
2022/10/10 09:02:36;;;;;;;5.38;2.97;;;14.60;98.70;;;;;;10404256;28;20547;-78
2022/10/10 09:07:52;;;;;;;6.57;3.17;;;14.70;97.60;;;;;;10405857;28;20029;-77
2022/10/10 09:12:59;;;;;;;6.72;3.35;;;14.90;97.70;;;;;;10405403;28;20121;-77
2022/10/10 09:18:22;;;;;;;6.85;3.50;;;15.10;94.70;;;;;;10405504;28;20033;-78
2022/10/10 09:23:28;;;;;;;9.52;3.75;;;15.30;90.10;;;;;;10405770;28;20030;-80
2022/10/10 09:28:57;;;;;;;4.45;2.85;;;15.50;92.00;;;;;;10404753;28;20033;-78
2022/10/10 09:34:21;;;;;;;6.50;3.13;;;15.80;91.00;;;;;;10402757;28;20777;-80
2022/10/10 09:39:37;;;;;;;12.88;3.95;;;16.00;90.90;;;;;;10389817;28;20064;-80
2022/10/10 09:44:39;;;;;;;6.75;3.10;;;16.20;90.30;;;;;;10404657;28;20029;-78
2022/10/10 09:49:40;;;;;;;4.95;2.88;;;16.40;90.60;;;;;;10404363;28;20031;-78
2022/10/10 09:54:43;;;;;;;7.53;3.35;;;16.60;90.60;;;;;;10404177;28;20521;-79
2022/10/10 09:59:45;;;;;;;6.60;2.95;;;16.60;85.50;;;;;;10401582;28;20068;-78
2022/10/10 10:04:47;;;;;;;5.35;2.90;;;16.80;85.30;;;;;;10391253;28;20060;-78
2022/10/10 10:09:50;;;;;;;5.75;3.08;;;17.00;88.00;;;;;;10411259;28;20034;-78
2022/10/10 10:14:56;;;;;;;6.00;2.72;;;17.20;84.30;;;;;;10397730;28;20377;-77
2022/10/10 10:19:56;;;;;;;5.22;2.78;;;17.40;83.70;;;;;;10411731;28;20021;-78
2022/10/10 10:24:59;;;;;;;4.40;2.80;;;17.40;83.80;;;;;;10411729;28;20037;-78
2022/10/10 10:29:59;;;;;;;9.00;3.20;;;17.50;81.50;;;;;;10411493;28;20458;-78
2022/10/10 10:35:03;;;;;;;4.53;2.65;;;17.60;80.70;;;;;;10411205;28;20121;-79
2022/10/10 10:40:31;;;;;;;6.35;2.90;;;17.80;83.30;;;;;;10410938;28;20026;-78
2022/10/10 10:45:35;;;;;;;6.43;3.30;;;17.90;82.00;;;;;;10410869;28;20851;-78
2022/10/10 10:51:26;;;;;;;3.83;2.83;;;18.10;82.90;;;;;;10410452;28;20033;-78
2022/10/10 10:56:44;;;;;;;5.78;2.92;;;18.30;83.50;;;;;;10379774;28;20786;-77
2022/10/10 11:01:45;;;;;;;8.82;3.25;;;18.50;79.70;;;;;;10410565;28;20033;-78
2022/10/10 11:07:21;;;;;;;6.22;2.88;;;18.40;78.20;;;;;;10409807;28;20033;-79
2022/10/10 11:12:51;;;;;;;8.00;2.85;;;18.40;78.90;;;;;;10409723;28;20029;-80
2022/10/10 11:17:57;;;;;;;4.68;2.90;;;18.60;77.30;;;;;;10409848;28;20698;-78
2022/10/10 11:23:09;;;;;;;3.83;2.60;;;18.70;79.20;;;;;;10409788;28;20851;-80
2022/10/10 11:28:19;;;;;;;8.82;3.28;;;18.70;75.30;;;;;;10409400;28;20037;-80
2022/10/10 11:33:27;;;;;;;8.70;3.45;;;18.80;75.00;;;;;;10408798;28;20045;-78
2022/10/10 11:38:49;;;;;;;4.82;3.75;;;18.80;75.60;;;;;;10393647;28;20025;-78
2022/10/10 11:43:50;;;;;;;7.30;4.07;;;19.00;77.10;;;;;;10408991;28;20057;-79
2022/10/10 11:48:57;;;;;;;6.25;3.83;;;19.00;74.90;;;;;;10408692;28;20060;-78
2022/10/10 11:54:03;;;;;;;9.43;4.10;;;19.10;74.70;;;;;;10408167;28;20128;-79
2022/10/10 11:59:12;;;;;;;;;;;19.20;75.70;;;;;;10389340;28;20064;-78
2022/10/10 12:04:13;;;;;;;9.50;4.45;;;19.40;77.50;;;;;;10395333;28;19920;-77
2022/10/10 12:09:25;;;;;;;6.63;3.80;;;19.30;72.40;;;;;;10407271;28;20025;-76
2022/10/10 12:14:30;;;;;;;5.65;3.60;;;19.30;73.80;;;;;;10406852;28;20104;-76
2022/10/10 12:19:30;;;;;;;7.13;4.40;;;19.30;74.20;;;;;;10405296;28;20116;-79
2022/10/10 12:24:34;;;;;;;6.30;4.20;;;19.40;75.40;;;;;;10392630;28;20034;-78
2022/10/10 12:29:42;;;;;;;9.05;4.60;;;19.50;75.40;;;;;;10406354;28;20026;-77
2022/10/10 12:34:57;;;;;;;9.57;5.05;;;19.50;75.20;;;;;;10392175;28;20061;-78
2022/10/10 12:40:21;;;;;;;9.77;5.20;;;19.60;75.30;;;;;;10406498;28;20107;-78
2022/10/10 12:45:27;;;;;;;10.77;6.47;;;19.60;74.30;;;;;;10402522;28;20061;-78
2022/10/10 12:50:36;;;;;;;7.30;4.10;;;19.60;75.40;;;;;;10393227;28;20124;-79
2022/10/10 12:55:45;;;;;;;9.15;5.05;;;19.60;75.50;;;;;;10395179;28;20033;-80
2022/10/10 13:00:47;;;;;;;6.57;4.57;;;19.60;73.70;;;;;;10403246;28;20629;-79
2022/10/10 13:05:50;;;;;;;7.32;4.03;;;19.70;74.70;;;;;;10402263;28;20045;-79
2022/10/10 13:11:10;;;;;;;7.38;5.28;;;19.70;74.60;;;;;;10397814;28;20021;-77
2022/10/10 13:16:14;;;;;;;13.05;7.53;;;19.60;74.10;;;;;;10389816;28;20025;-78
2022/10/10 13:21:23;;;;;;;11.60;6.30;;;19.50;74.60;;;;;;10405651;28;20091;-79
2022/10/10 13:26:31;;;;;;;10.77;7.28;;;19.50;74.60;;;;;;10381944;28;20041;-77
2022/10/10 13:31:32;;;;;;;8.82;5.15;;;19.30;73.40;;;;;;10386639;28;20030;-79
2022/10/10 13:36:33;;;;;;;8.77;4.88;;;19.30;74.40;;;;;;10399742;28;20405;-78
2022/10/10 13:41:33;;;;;;;6.32;4.75;;;19.20;75.60;;;;;;10398171;28;20108;-78
2022/10/10 13:46:34;;;;;;;8.88;4.63;;;19.20;76.70;;;;;;10405409;28;20044;-79
2022/10/10 13:51:45;;;;;;;6.63;4.20;;;19.10;74.90;;;;;;10405182;28;20109;-79
2022/10/10 13:56:46;;;;;;;7.95;3.72;;;19.00;75.90;;;;;;10402394;28;20029;-78
2022/10/10 14:01:57;;;;;;;8.88;4.35;;;19.00;75.70;;;;;;10395679;28;20065;-78
2022/10/10 14:07:06;;;;;;;10.23;4.47;;;18.90;76.40;;;;;;10412951;28;20038;-80
2022/10/10 14:12:19;;;;;;;6.38;3.63;;;18.80;76.50;;;;;;10410883;28;20393;-78
2022/10/10 14:17:20;;;;;;;12.45;5.00;;;18.60;76.50;;;;;;10408654;28;20037;-79
2022/10/10 14:22:21;;;;;;;7.93;4.25;;;18.50;76.90;;;;;;10401278;28;20037;-77
2022/10/10 14:27:24;;;;;;;10.23;4.20;;;18.40;77.60;;;;;;10410761;28;20469;-77
2022/10/10 14:32:25;;;;;;;6.35;4.28;;;18.30;76.20;;;;;;10393523;28;20056;-78
2022/10/10 14:37:28;;;;;;;8.43;4.90;;;18.20;75.80;;;;;;10409229;28;20077;-79
2022/10/10 14:42:28;;;;;;;11.15;4.63;;;18.00;75.80;;;;;;10408661;28;20112;-78
2022/10/10 14:47:29;;;;;;;12.32;4.95;;;17.90;76.30;;;;;;10411174;28;20049;-78
2022/10/10 14:52:29;;;;;;;10.10;4.30;;;17.80;77.30;;;;;;10410032;28;20041;-78
2022/10/10 14:57:30;;;;;;;17.45;8.60;;;17.60;77.40;;;;;;10399657;28;20378;-76
2022/10/10 15:02:30;;;;;;;11.43;5.22;;;17.50;77.20;;;;;;10402533;28;20037;-78
2022/10/10 15:07:31;;;;;;;12.85;6.53;;;17.30;77.40;;;;;;10404049;28;20037;-80
2022/10/10 15:12:32;;;;;;;10.73;5.78;;;17.20;78.00;;;;;;10395027;28;20362;-79
2022/10/10 15:17:33;;;;;;;15.75;9.50;;;17.00;77.90;;;;;;10397078;28;20029;-79
2022/10/10 15:22:34;;;;;;;21.13;13.80;;;16.80;78.70;;;;;;10394788;28;20095;-77
2022/10/10 15:27:36;;;;;;;13.68;10.38;;;16.60;78.60;;;;;;10394479;28;20148;-78
2022/10/10 15:32:38;;;;;;;12.10;7.63;;;16.30;78.60;;;;;;10408672;28;20038;-78
2022/10/10 15:37:39;;;;;;;9.88;6.60;;;16.10;79.00;;;;;;10406863;28;20061;-77
2022/10/10 15:42:40;;;;;;;15.55;8.50;;;15.90;79.90;;;;;;10400664;28;20041;-78
2022/10/10 15:47:41;;;;;;;16.63;9.73;;;15.60;80.00;;;;;;10393725;28;20038;-79
2022/10/10 15:52:41;;;;;;;19.50;9.80;;;15.40;80.50;;;;;;10398062;28;20029;-80
2022/10/10 15:57:42;;;;;;;61.25;26.55;;;15.10;81.40;;;;;;10398969;28;20656;-79
2022/10/10 16:02:42;;;;;;;61.75;22.70;;;14.70;83.00;;;;;;10403812;28;20068;-79
2022/10/10 16:07:43;;;;;;;33.97;12.50;;;14.30;84.40;;;;;;10392809;28;20049;-78
2022/10/10 16:12:43;;;;;;;51.20;20.48;;;13.90;84.90;;;;;;10402730;28;20033;-77
2022/10/10 16:17:44;;;;;;;26.45;12.10;;;13.50;86.20;;;;;;10402649;28;20428;-78
2022/10/10 16:22:44;;;;;;;28.70;11.27;;;13.20;87.70;;;;;;10393172;28;20614;-78
2022/10/10 16:27:45;;;;;;;42.47;18.88;;;12.90;88.60;;;;;;10379238;28;20048;-78
2022/10/10 16:32:47;;;;;;;51.10;23.88;;;12.50;89.80;;;;;;10400331;28;20037;-80
2022/10/10 16:37:47;;;;;;;39.10;18.35;;;12.10;90.30;;;;;;10399132;28;20057;-78
2022/10/10 16:42:48;;;;;;;28.75;15.20;;;11.90;90.90;;;;;;10395057;28;20078;-80
2022/10/10 16:47:48;;;;;;;26.63;13.77;;;11.60;91.40;;;;;;10385257;28;20405;-79
2022/10/10 16:52:49;;;;;;;25.77;14.07;;;11.40;92.40;;;;;;10390017;28;20045;-78
2022/10/10 16:57:49;;;;;;;20.85;11.20;;;11.20;93.40;;;;;;10388062;28;20056;-78
2022/10/10 17:02:50;;;;;;;83.72;40.42;;;11.10;93.90;;;;;;10398881;28;20037;-80
2022/10/10 17:07:50;;;;;;;54.10;27.42;;;11.00;95.30;;;;;;10375863;28;20527;-78
2022/10/10 17:12:51;;;;;;;62.38;31.48;;;10.80;96.70;;;;;;10398921;28;20029;-78
2022/10/10 17:17:52;;;;;;;41.42;20.15;;;10.80;97.20;;;;;;10393811;28;20044;-78
2022/10/10 17:22:52;;;;;;;34.55;20.65;;;10.70;99.00;;;;;;10401611;28;20029;-79
2022/10/10 17:27:53;;;;;;;26.65;15.75;;;10.60;99.90;;;;;;10396697;28;20053;-80
2022/10/10 17:32:53;;;;;;;22.30;12.13;;;10.60;99.90;;;;;;10403001;28;20124;-79
2022/10/10 17:37:54;;;;;;;19.65;11.23;;;10.50;99.90;;;;;;10392164;28;20029;-79
2022/10/10 17:42:55;;;;;;;22.33;12.15;;;10.40;99.90;;;;;;10395035;28;20033;-79
2022/10/10 17:47:55;;;;;;;21.40;11.45;;;10.30;99.90;;;;;;10392319;28;20409;-79
2022/10/10 17:52:56;;;;;;;23.73;12.93;;;10.40;99.90;;;;;;10385140;28;20041;-79
2022/10/10 17:57:58;;;;;;;26.83;13.38;;;10.40;99.90;;;;;;10382873;28;20041;-79
2022/10/10 18:02:58;;;;;;;27.67;14.38;;;10.30;99.90;;;;;;10379150;28;20112;-79
2022/10/10 18:07:59;;;;;;;25.70;13.32;;;10.20;99.90;;;;;;10379450;28;20124;-79
2022/10/10 18:13:00;;;;;;;27.70;14.60;;;10.20;99.90;;;;;;10380713;28;20034;-79
2022/10/10 18:18:00;;;;;;;33.63;18.38;;;10.10;99.90;;;;;;10389279;28;20374;-81
2022/10/10 18:23:01;;;;;;;36.20;19.17;;;10.20;99.90;;;;;;10385233;28;20029;-80
2022/10/10 18:28:02;;;;;;;40.22;20.98;;;10.10;99.90;;;;;;10407081;28;20106;-79
2022/10/10 18:33:02;;;;;;;41.95;22.00;;;10.20;99.90;;;;;;10403673;28;20076;-81
2022/10/10 18:38:03;;;;;;;79.45;36.78;;;10.20;99.90;;;;;;10411386;28;20044;-81
2022/10/10 18:43:04;;;;;;;45.67;24.00;;;10.10;99.90;;;;;;10403998;28;20516;-80
2022/10/10 18:48:05;;;;;;;41.63;19.90;;;9.90;99.90;;;;;;10390316;28;20032;-82
2022/10/10 18:53:05;;;;;;;34.28;17.60;;;9.80;99.90;;;;;;10400068;28;20033;-80
2022/10/10 18:58:06;;;;;;;31.20;16.77;;;9.80;99.90;;;;;;10398345;28;20036;-79
2022/10/10 19:03:07;;;;;;;34.63;17.87;;;9.80;99.90;;;;;;10404799;28;20107;-78
2022/10/10 19:08:08;;;;;;;30.92;17.77;;;9.70;99.90;;;;;;10396033;28;20065;-79
2022/10/10 19:13:09;;;;;;;53.23;30.23;;;9.60;99.90;;;;;;10402403;28;20034;-80
2022/10/10 19:18:09;;;;;;;43.23;26.00;;;9.60;99.90;;;;;;10404618;28;20033;-79
2022/10/10 19:23:11;;;;;;;38.10;21.93;;;9.50;99.90;;;;;;10398156;28;20029;-79
2022/10/10 19:28:11;;;;;;;41.30;22.00;;;9.40;99.90;;;;;;10407857;28;20037;-81
2022/10/10 19:33:13;;;;;;;59.97;31.10;;;9.40;99.90;;;;;;10393649;28;20905;-81
2022/10/10 19:38:17;;;;;;;46.87;26.13;;;9.30;99.90;;;;;;10409013;28;20033;-79
2022/10/10 19:43:19;;;;;;;43.97;23.77;;;9.40;99.90;;;;;;10408195;28;20061;-79
2022/10/10 19:48:22;;;;;;;53.50;28.83;;;9.30;99.90;;;;;;10407473;28;20037;-78
2022/10/10 19:53:22;;;;;;;55.53;29.03;;;9.30;99.90;;;;;;10407913;28;20140;-79
2022/10/10 19:58:23;;;;;;;44.97;26.33;;;9.30;99.90;;;;;;10401099;28;20036;-81
2022/10/10 20:03:24;;;;;;;47.33;26.10;;;9.30;99.90;;;;;;10403090;28;20060;-80
2022/10/10 20:08:24;;;;;;;43.23;24.37;;;9.20;99.90;;;;;;10395615;28;20029;-79
2022/10/10 20:13:25;;;;;;;43.20;24.27;;;9.20;99.90;;;;;;10407115;28;20026;-80
2022/10/10 20:18:26;;;;;;;44.00;24.00;;;9.10;99.90;;;;;;10399645;28;20111;-79
2022/10/10 20:23:26;;;;;;;43.93;23.87;;;9.20;99.90;;;;;;10393222;28;20033;-78
2022/10/10 20:28:27;;;;;;;46.70;22.43;;;9.10;99.90;;;;;;10406404;28;20378;-78
2022/10/10 20:33:28;;;;;;;42.17;22.80;;;9.10;99.90;;;;;;10405287;28;20077;-81
2022/10/10 20:38:28;;;;;;;49.73;23.07;;;9.10;99.90;;;;;;10405135;28;20108;-78
2022/10/10 20:43:29;;;;;;;44.20;22.93;;;9.10;99.90;;;;;;10405911;28;20428;-79
2022/10/10 20:48:31;;;;;;;41.30;22.00;;;9.00;99.90;;;;;;10400951;28;20042;-79
2022/10/10 20:53:32;;;;;;;40.43;20.67;;;9.00;99.90;;;;;;10392620;28;20026;-79
2022/10/10 20:58:35;;;;;;;41.80;22.67;;;9.00;99.90;;;;;;10403508;28;20087;-79
2022/10/10 21:03:37;;;;;;;32.87;19.10;;;9.00;99.90;;;;;;10390624;28;20073;-78
2022/10/10 21:08:38;;;;;;;38.97;20.47;;;9.00;99.90;;;;;;10405599;28;20045;-79
2022/10/10 21:13:41;;;;;;;38.17;20.47;;;9.00;99.90;;;;;;10395023;28;20045;-81
2022/10/10 21:18:44;;;;;;;36.47;19.47;;;9.00;99.90;;;;;;10378759;28;20087;-79
2022/10/10 21:23:46;;;;;;;36.37;20.90;;;9.00;99.90;;;;;;10404329;28;20119;-79
2022/10/10 21:28:48;;;;;;;45.47;23.87;;;9.00;99.90;;;;;;10402759;28;20025;-79
2022/10/10 21:33:49;;;;;;;47.07;24.80;;;9.00;99.90;;;;;;10404525;28;20057;-78
2022/10/10 21:38:50;;;;;;;44.80;23.83;;;9.00;99.90;;;;;;10394912;28;20053;-80
2022/10/10 21:43:53;;;;;;;41.03;24.83;;;8.90;99.90;;;;;;10398346;28;20021;-80
2022/10/10 21:48:55;;;;;;;44.90;23.73;;;8.80;99.90;;;;;;10403885;28;20697;-79
2022/10/10 21:53:57;;;;;;;42.17;23.73;;;8.80;99.90;;;;;;10391105;28;20072;-80
2022/10/10 21:58:58;;;;;;;45.60;25.67;;;8.80;99.90;;;;;;10404006;28;20041;-79
2022/10/10 22:04:00;;;;;;;57.13;30.90;;;8.70;99.90;;;;;;10399739;28;20638;-80
2022/10/10 22:09:01;;;;;;;63.07;33.53;;;8.70;99.90;;;;;;10412823;28;20444;-78
2022/10/10 22:14:03;;;;;;;59.17;31.57;;;8.70;99.90;;;;;;10411114;28;20030;-78
2022/10/10 22:19:04;;;;;;;62.03;33.70;;;8.70;99.90;;;;;;10410809;28;20389;-79
2022/10/10 22:24:06;;;;;;;58.53;30.83;;;8.70;99.90;;;;;;10411033;28;20453;-79
2022/10/10 22:29:07;;;;;;;65.23;36.90;;;8.70;99.90;;;;;;10397790;28;20030;-78
